createdAt,value
2019-04-11T00:00:57.658Z,101270.34
2019-04-11T00:03:29.267Z,101268.99
2019-04-11T00:06:01.387Z,101265.34
2019-04-11T00:08:34.136Z,101265.92
2019-04-11T00:11:06.961Z,101277.44
2019-04-11T00:13:39.113Z,101274.27
2019-04-11T00:16:10.960Z,101268.68
2019-04-11T00:18:43.065Z,101267.08
2019-04-11T00:21:14.807Z,101269.66
2019-04-11T00:23:46.750Z,101272.20
2019-04-11T00:26:18.121Z,101278.14
2019-04-11T00:28:50.127Z,101273.04
2019-04-11T00:31:23.035Z,101273.04
2019-04-11T00:33:54.877Z,101277.26
2019-04-11T00:36:28.440Z,101272.95
2019-04-11T00:38:59.779Z,101281.06
2019-04-11T00:41:32.357Z,101277.78
2019-04-11T00:44:04.597Z,101285.66
2019-04-11T00:46:36.238Z,101286.66
2019-04-11T00:49:08.290Z,101279.50
2019-04-11T00:51:40.278Z,101281.44
2019-04-11T00:54:12.129Z,101287.91
2019-04-11T00:56:44.209Z,101284.36
2019-04-11T00:59:16.267Z,101284.38
2019-04-11T01:01:49.944Z,101288.80
2019-04-11T01:04:22.014Z,101288.69
2019-04-11T01:06:54.311Z,101293.59
2019-04-11T01:09:26.435Z,101297.56
2019-04-11T01:11:58.520Z,101296.97
2019-04-11T01:14:30.378Z,101298.61
2019-04-11T01:17:03.487Z,101298.68
2019-04-11T01:19:35.366Z,101300.77
2019-04-11T01:22:07.705Z,101298.79
2019-04-11T01:24:39.896Z,101303.06
2019-04-11T01:27:12.058Z,101294.84
2019-04-11T01:29:44.457Z,101294.83
2019-04-11T01:32:16.041Z,101291.58
2019-04-11T01:34:48.741Z,101296.70
2019-04-11T01:37:21.843Z,101296.23
2019-04-11T01:39:57.338Z,101296.82
2019-04-11T01:42:31.188Z,101298.89
2019-04-11T01:45:05.708Z,101301.27
2019-04-11T01:47:53.252Z,101303.34
2019-04-11T01:50:29.201Z,101299.58
2019-04-11T01:53:01.079Z,101296.48
2019-04-11T01:55:32.534Z,101300.44
2019-04-11T01:58:04.642Z,101308.55
2019-04-11T02:00:55.256Z,101310.96
2019-04-11T02:03:39.771Z,101308.27
2019-04-11T02:06:11.853Z,101312.45
2019-04-11T02:08:43.916Z,101311.63
2019-04-11T02:11:15.658Z,101310.45
2019-04-11T02:13:46.808Z,101312.45
2019-04-11T02:16:19.034Z,101310.80
2019-04-11T02:18:50.594Z,101315.91
2019-04-11T02:21:22.681Z,101308.38
2019-04-11T02:24:17.720Z,101314.59
2019-04-11T02:27:10.607Z,101312.04
2019-04-11T02:29:44.741Z,101317.84
2019-04-11T02:32:24.580Z,101313.42
2019-04-11T02:34:58.887Z,101316.89
2019-04-11T02:37:29.388Z,101317.78
2019-04-11T02:40:05.358Z,101318.47
2019-04-11T02:42:36.562Z,101319.11
2019-04-11T02:45:22.409Z,101321.00
2019-04-11T02:47:45.716Z,101324.89
2019-04-11T02:50:18.605Z,101321.89
2019-04-11T02:52:49.589Z,101325.55
2019-04-11T02:55:21.281Z,101339.23
2019-04-11T02:57:54.369Z,101333.33
2019-04-11T03:00:27.261Z,101335.03
2019-04-11T03:03:01.557Z,101328.36
2019-04-11T03:05:35.202Z,101329.59
2019-04-11T03:08:11.432Z,101332.25
2019-04-11T03:10:45.213Z,101334.94
2019-04-11T03:13:16.775Z,101337.08
2019-04-11T03:15:59.255Z,101338.29
2019-04-11T03:18:40.722Z,101339.44
2019-04-11T03:20:59.787Z,101341.45
2019-04-11T03:23:30.936Z,101334.06
2019-04-11T03:26:05.195Z,101342.60
2019-04-11T03:28:38.839Z,101342.19
2019-04-11T03:31:53.737Z,101348.28
2019-04-11T03:34:53.293Z,101346.83
2019-04-11T03:37:08.574Z,101351.34
2019-04-11T03:39:15.441Z,101348.69
2019-04-11T03:41:45.438Z,101355.20
2019-04-11T03:44:12.040Z,101360.20
2019-04-11T03:46:49.293Z,101356.36
2019-04-11T03:49:20.701Z,101357.59
2019-04-11T03:51:47.985Z,101355.45
2019-04-11T03:54:21.103Z,101353.02
2019-04-11T03:56:53.862Z,101357.30
2019-04-11T03:59:26.989Z,101360.47
2019-04-11T04:02:03.248Z,101352.71
2019-04-11T04:04:39.279Z,101354.92
2019-04-11T04:07:13.107Z,101358.31
2019-04-11T04:09:46.331Z,101361.08
2019-04-11T04:12:20.831Z,101364.34
2019-04-11T04:15:31.349Z,101370.14
2019-04-11T04:18:10.340Z,101370.77
2019-04-11T04:20:54.383Z,101376.25
2019-04-11T04:23:33.645Z,101384.45
2019-04-11T04:26:10.540Z,101383.00
2019-04-11T04:28:45.238Z,101389.14
2019-04-11T04:31:18.443Z,101388.38
2019-04-11T04:33:51.393Z,101398.23
2019-04-11T04:36:24.748Z,101397.11
2019-04-11T04:38:59.237Z,101397.59
2019-04-11T04:41:42.824Z,101411.02
2019-04-11T04:44:08.574Z,101408.73
2019-04-11T04:46:55.537Z,101413.98
2019-04-11T04:49:15.321Z,101415.04
2019-04-11T04:51:47.802Z,101417.36
2019-04-11T04:54:24.078Z,101425.10
2019-04-11T04:56:55.503Z,101424.79
2019-04-11T04:59:28.137Z,101427.04
2019-04-11T05:02:01.756Z,101432.46
2019-04-11T05:04:36.090Z,101437.03
2019-04-11T05:07:09.540Z,101435.64
2019-04-11T05:09:42.774Z,101432.69
2019-04-11T05:12:16.214Z,101438.71
2019-04-11T05:14:49.689Z,101443.16
2019-04-11T05:17:23.095Z,101443.03
2019-04-11T05:19:56.483Z,101446.36
2019-04-11T05:22:28.516Z,101449.94
2019-04-11T05:25:01.849Z,101456.50
2019-04-11T05:27:33.561Z,101451.36
2019-04-11T05:30:07.795Z,101456.15
2019-04-11T05:32:41.918Z,101458.08
2019-04-11T05:35:14.355Z,101459.57
2019-04-11T05:37:47.474Z,101457.54
2019-04-11T05:40:18.995Z,101464.73
2019-04-11T05:42:54.225Z,101464.03
2019-04-11T05:45:26.478Z,101464.66
2019-04-11T05:47:58.429Z,101463.07
2019-04-11T05:50:32.530Z,101466.84
2019-04-11T05:53:05.646Z,101473.32
2019-04-11T05:55:45.140Z,101470.16
2019-04-11T05:58:17.572Z,101465.78
2019-04-11T06:00:57.874Z,101461.25
2019-04-11T06:03:30.249Z,101466.78
2019-04-11T06:06:20.493Z,101469.23
2019-04-11T06:08:56.210Z,101471.00
2019-04-11T06:11:45.280Z,101475.06
2019-04-11T06:14:37.482Z,101480.27
2019-04-11T06:17:14.241Z,101471.81
2019-04-11T06:20:08.239Z,101478.93
2019-04-11T06:22:45.630Z,101482.14
2019-04-11T06:25:46.738Z,101477.97
2019-04-11T06:28:27.308Z,101485.02
2019-04-11T06:31:22.248Z,101489.63
2019-04-11T06:34:01.460Z,101493.06
2019-04-11T06:37:01.821Z,101496.05
2019-04-11T06:39:40.116Z,101497.44
2019-04-11T06:42:23.009Z,101490.72
2019-04-11T06:45:13.493Z,101499.33
2019-04-11T06:48:11.483Z,101496.30
2019-04-11T06:50:47.278Z,101498.64
2019-04-11T06:53:26.385Z,101501.21
2019-04-11T06:56:16.902Z,101502.16
2019-04-11T06:58:54.147Z,101502.35
2019-04-11T07:01:28.089Z,101498.89
2019-04-11T07:04:09.770Z,101499.80
2019-04-11T07:06:43.722Z,101503.78
2019-04-11T07:09:45.135Z,101497.87
2019-04-11T07:12:28.639Z,101498.34
2019-04-11T07:15:14.961Z,101503.98
2019-04-11T07:18:07.465Z,101506.79
2019-04-11T07:21:00.624Z,101501.66
2019-04-11T07:23:51.426Z,101498.48
2019-04-11T07:26:37.297Z,101503.58
2019-04-11T07:29:42.166Z,101507.82
2019-04-11T07:32:16.181Z,101507.11
2019-04-11T07:35:22.414Z,101505.95
2019-04-11T07:37:58.123Z,101507.47
2019-04-11T07:40:58.956Z,101510.52
2019-04-11T07:43:35.903Z,101507.34
2019-04-11T07:46:21.939Z,101510.30
2019-04-11T07:49:08.136Z,101507.36
2019-04-11T07:51:44.925Z,101512.63
2019-04-11T07:54:18.715Z,101511.55
2019-04-11T07:57:13.130Z,101515.73
2019-04-11T08:00:06.009Z,101504.39
2019-04-11T08:03:04.146Z,101508.37
2019-04-11T08:06:00.951Z,101508.07
2019-04-11T08:08:43.472Z,101503.73
2019-04-11T08:11:19.807Z,101517.06
2019-04-11T08:14:20.227Z,101522.50
2019-04-11T08:17:37.039Z,101519.68
2019-04-11T08:20:33.234Z,101514.69
2019-04-11T08:23:07.598Z,101522.67
2019-04-11T08:26:13.678Z,101516.14
2019-04-11T08:28:50.250Z,101516.75
2019-04-11T08:31:46.632Z,101531.11
2019-04-11T08:34:20.260Z,101527.78
2019-04-11T08:37:11.523Z,101527.09
2019-04-11T08:39:47.192Z,101526.88
2019-04-11T08:42:56.905Z,101543.95
2019-04-11T08:45:29.759Z,101536.84
2019-04-11T08:48:04.489Z,101541.00
2019-04-11T08:50:38.927Z,101535.73
2019-04-11T08:53:29.085Z,101536.86
2019-04-11T08:56:03.836Z,101543.41
2019-04-11T08:58:44.773Z,101535.14
2019-04-11T09:01:18.536Z,101537.31
2019-04-11T09:04:10.523Z,101550.70
2019-04-11T09:06:42.918Z,101538.83
2019-04-11T09:09:33.490Z,101544.30
2019-04-11T09:12:08.214Z,101541.84
2019-04-11T09:15:17.117Z,101542.32
2019-04-11T09:17:59.083Z,101535.64
2019-04-11T09:20:43.643Z,101540.53
2019-04-11T09:23:19.763Z,101544.21
2019-04-11T09:26:09.747Z,101536.94
2019-04-11T09:28:47.213Z,101536.30
2019-04-11T09:31:41.735Z,101531.23
2019-04-11T09:34:37.672Z,101538.80
2019-04-11T09:37:29.562Z,101529.28
2019-04-11T09:40:23.852Z,101531.86
2019-04-11T09:43:24.239Z,101542.45
2019-04-11T09:46:14.943Z,101537.03
2019-04-11T09:49:14.992Z,101535.64
2019-04-11T09:52:08.886Z,101530.73
2019-04-11T09:55:00.843Z,101527.66
2019-04-11T09:57:40.490Z,101526.06
2019-04-11T10:00:30.423Z,101528.16
2019-04-11T10:03:21.651Z,101521.97
2019-04-11T10:06:07.264Z,101516.36
2019-04-11T10:08:41.619Z,101509.08
2019-04-11T10:11:32.387Z,101517.14
2019-04-11T10:14:13.519Z,101519.11
2019-04-11T10:17:04.448Z,101514.33
2019-04-11T10:20:13.859Z,101510.15
2019-04-11T10:23:01.967Z,101516.17
2019-04-11T10:25:47.618Z,101509.45
2019-04-11T10:28:53.653Z,101530.88
2019-04-11T10:31:26.289Z,101520.78
2019-04-11T10:34:19.982Z,101518.11
2019-04-11T10:37:13.664Z,101514.68
2019-04-11T10:40:04.569Z,101514.77
2019-04-11T10:42:36.857Z,101521.77
2019-04-11T10:45:18.915Z,101521.95
2019-04-11T10:47:55.972Z,101532.34
2019-04-11T10:50:48.670Z,101529.50
2019-04-11T10:53:27.000Z,101521.15
2019-04-11T10:56:24.405Z,101522.06
2019-04-11T10:59:01.680Z,101527.21
2019-04-11T11:01:52.575Z,101518.78
2019-04-11T11:04:27.648Z,101516.64
2019-04-11T11:07:04.354Z,101518.73
2019-04-11T11:09:55.271Z,101525.21
2019-04-11T11:12:32.953Z,101519.56
2019-04-11T11:15:31.667Z,101520.09
2019-04-11T11:18:43.937Z,101523.71
2019-04-11T11:21:05.494Z,101524.13
2019-04-11T11:23:54.688Z,101524.46
2019-04-11T11:26:29.423Z,101535.54
2019-04-11T11:29:13.605Z,101543.99
2019-04-11T11:31:49.216Z,101534.64
2019-04-11T11:34:34.642Z,101539.28
2019-04-11T11:37:25.477Z,101544.45
2019-04-11T11:40:18.794Z,101536.91
2019-04-11T11:43:08.722Z,101537.55
2019-04-11T11:46:08.373Z,101536.98
2019-04-11T11:48:46.380Z,101538.27
2019-04-11T11:51:46.149Z,101541.03
2019-04-11T11:54:38.135Z,101531.95
2019-04-11T11:57:14.974Z,101529.35
2019-04-11T11:59:53.923Z,101531.34
2019-04-11T12:02:30.586Z,101528.53
2019-04-11T12:05:26.686Z,101532.47
2019-04-11T12:08:24.496Z,101532.42
2019-04-11T12:11:03.882Z,101531.63
2019-04-11T12:13:53.734Z,101538.66
2019-04-11T12:16:44.896Z,101532.05
2019-04-11T12:19:51.119Z,101527.48
2019-04-11T12:22:18.269Z,101531.48
2019-04-11T12:25:17.549Z,101539.02
2019-04-11T12:28:17.697Z,101530.23
2019-04-11T12:30:58.723Z,101530.03
2019-04-11T12:33:52.124Z,101527.48
2019-04-11T12:36:43.019Z,101538.48
2019-04-11T12:39:28.870Z,101537.78
2019-04-11T12:42:17.809Z,101538.60
2019-04-11T12:45:07.192Z,101536.54
2019-04-11T12:47:44.845Z,101540.14
2019-04-11T12:50:35.863Z,101534.58
2019-04-11T12:53:09.439Z,101534.27
2019-04-11T12:56:03.004Z,101529.71
2019-04-11T12:58:59.157Z,101530.81
2019-04-11T13:01:49.465Z,101528.95
2019-04-11T13:04:31.519Z,101527.58
2019-04-11T13:07:33.772Z,101533.97
2019-04-11T13:10:33.132Z,101537.66
2019-04-11T13:13:35.004Z,101536.13
2019-04-11T13:16:12.350Z,101535.47
2019-04-11T13:19:00.045Z,101542.00
2019-04-11T13:21:51.818Z,101539.38
2019-04-11T13:25:11.878Z,101540.92
2019-04-11T13:27:47.055Z,101544.14
2019-04-11T13:30:40.618Z,101538.20
2019-04-11T13:33:15.695Z,101530.30
2019-04-11T13:36:06.537Z,101529.35
2019-04-11T13:38:51.507Z,101533.33
2019-04-11T13:41:41.386Z,101531.64
2019-04-11T13:44:21.860Z,101536.06
2019-04-11T13:47:10.810Z,101542.36
2019-04-11T13:49:50.942Z,101535.45
2019-04-11T13:52:41.052Z,101545.40
2019-04-11T13:55:24.347Z,101541.27
2019-04-11T13:58:15.096Z,101539.92
2019-04-11T14:00:49.625Z,101539.92
2019-04-11T14:03:48.704Z,101538.41
2019-04-11T14:06:26.217Z,101534.27
2019-04-11T14:09:25.441Z,101529.95
2019-04-11T14:11:58.798Z,101531.15
2019-04-11T14:15:08.242Z,101537.34
2019-04-11T14:17:52.826Z,101537.14
2019-04-11T14:20:30.657Z,101534.16
2019-04-11T14:23:24.915Z,101532.80
2019-04-11T14:26:15.172Z,101530.46
2019-04-11T14:29:08.105Z,101537.22
2019-04-11T14:31:58.690Z,101529.00
2019-04-11T14:34:50.424Z,101526.52
2019-04-11T14:37:37.789Z,101523.63
2019-04-11T14:40:10.915Z,101520.80
2019-04-11T14:43:00.893Z,101529.59
2019-04-11T14:45:55.963Z,101521.23
2019-04-11T14:48:41.484Z,101520.65
2019-04-11T14:51:30.426Z,101520.78
2019-04-11T14:54:11.945Z,101520.78
2019-04-11T14:56:52.456Z,101519.78
2019-04-11T14:59:46.345Z,101523.12
2019-04-11T15:02:33.483Z,101521.63
2019-04-11T15:05:19.281Z,101528.47
2019-04-11T15:07:50.769Z,101536.53
2019-04-11T15:10:53.168Z,101533.92
2019-04-11T15:13:28.799Z,101538.61
2019-04-11T15:16:28.543Z,101537.74
2019-04-11T15:19:02.327Z,101529.52
2019-04-11T15:21:51.781Z,101524.48
2019-04-11T15:24:24.006Z,101531.87
2019-04-11T15:27:12.956Z,101531.80
2019-04-11T15:29:46.447Z,101537.20
2019-04-11T15:32:53.415Z,101537.45
2019-04-11T15:35:25.424Z,101532.63
2019-04-11T15:38:15.688Z,101532.64
2019-04-11T15:40:50.366Z,101540.56
2019-04-11T15:43:43.233Z,101544.64
2019-04-11T15:46:33.791Z,101544.59
2019-04-11T15:49:36.036Z,101541.02
2019-04-11T15:52:11.151Z,101540.11
2019-04-11T15:55:07.770Z,101544.38
2019-04-11T15:57:45.773Z,101549.86
2019-04-11T16:00:36.088Z,101539.73
2019-04-11T16:03:13.843Z,101547.11
2019-04-11T16:06:03.215Z,101538.27
2019-04-11T16:08:38.780Z,101539.30
2019-04-11T16:11:27.570Z,101539.23
2019-04-11T16:14:33.543Z,101545.63
2019-04-11T16:17:35.003Z,101547.59
2019-04-11T16:20:28.005Z,101535.45
2019-04-11T16:23:27.178Z,101542.66
2019-04-11T16:25:59.283Z,101545.13
2019-04-11T16:29:00.589Z,101542.88
2019-04-11T16:31:40.183Z,101542.45
2019-04-11T16:34:19.812Z,101551.58
2019-04-11T16:36:54.447Z,101556.56
2019-04-11T16:39:55.116Z,101553.91
2019-04-11T16:42:36.738Z,101550.95
2019-04-11T16:45:38.033Z,101555.45
2019-04-11T16:48:09.369Z,101561.74
2019-04-11T16:50:41.733Z,101551.66
2019-04-11T16:53:13.615Z,101558.79
2019-04-11T16:55:45.522Z,101554.91
2019-04-11T16:58:19.561Z,101559.75
2019-04-11T17:00:52.630Z,101555.67
2019-04-11T17:03:25.075Z,101560.95
2019-04-11T17:06:14.933Z,101556.97
2019-04-11T17:08:58.255Z,101552.08
2019-04-11T17:11:30.238Z,101557.36
2019-04-11T17:14:02.152Z,101559.56
2019-04-11T17:16:33.524Z,101560.42
2019-04-11T17:19:06.159Z,101559.53
2019-04-11T17:21:43.246Z,101557.28
2019-04-11T17:24:10.469Z,101559.02
2019-04-11T17:26:42.406Z,101565.55
2019-04-11T17:29:14.768Z,101563.27
2019-04-11T17:31:47.074Z,101570.72
2019-04-11T17:34:18.234Z,101569.84
2019-04-11T17:36:49.703Z,101572.00
2019-04-11T17:39:22.607Z,101574.17
2019-04-11T17:41:54.077Z,101584.61
2019-04-11T17:44:25.868Z,101591.17
2019-04-11T17:46:57.401Z,101582.33
2019-04-11T17:49:29.841Z,101591.08
2019-04-11T17:52:04.836Z,101588.39
2019-04-11T17:54:34.954Z,101595.81
2019-04-11T17:57:06.256Z,101594.50
2019-04-11T17:59:38.462Z,101601.03
2019-04-11T18:02:11.143Z,101601.45
2019-04-11T18:04:45.758Z,101608.41
2019-04-11T18:07:17.603Z,101615.86
2019-04-11T18:09:48.978Z,101617.17
2019-04-11T18:12:20.412Z,101615.33
2019-04-11T18:14:52.453Z,101620.16
2019-04-11T18:17:23.733Z,101623.92
2019-04-11T18:19:55.948Z,101627.37
2019-04-11T18:22:27.371Z,101633.00
2019-04-11T18:24:59.750Z,101636.94
2019-04-11T18:27:32.222Z,101636.45
2019-04-11T18:30:05.378Z,101639.85
2019-04-11T18:32:37.039Z,101635.42
2019-04-11T18:35:09.093Z,101639.78
2019-04-11T18:37:41.511Z,101640.91
2019-04-11T18:40:15.257Z,101641.88
2019-04-11T18:42:46.886Z,101642.65
2019-04-11T18:45:19.058Z,101646.16
2019-04-11T18:47:50.603Z,101646.52
2019-04-11T18:50:23.518Z,101653.49
2019-04-11T18:52:59.194Z,101650.80
2019-04-11T18:55:29.358Z,101650.84
2019-04-11T18:58:04.634Z,101661.28
2019-04-11T19:00:35.797Z,101658.98
2019-04-11T19:03:10.252Z,101674.70
2019-04-11T19:05:43.008Z,101659.36
2019-04-11T19:08:14.877Z,101672.47
2019-04-11T19:10:46.964Z,101669.77
2019-04-11T19:13:19.089Z,101662.68
2019-04-11T19:15:50.710Z,101664.88
2019-04-11T19:18:22.783Z,101665.77
2019-04-11T19:20:54.339Z,101661.98
2019-04-11T19:23:26.796Z,101668.80
2019-04-11T19:25:58.596Z,101664.88
2019-04-11T19:28:30.137Z,101664.45
2019-04-11T19:31:02.158Z,101671.35
2019-04-11T19:33:34.915Z,101663.45
2019-04-11T19:36:07.088Z,101666.92
2019-04-11T19:38:42.990Z,101666.92
2019-04-11T19:41:16.931Z,101670.38
2019-04-11T19:43:48.677Z,101673.86
2019-04-11T19:46:20.477Z,101679.14
2019-04-11T19:48:55.355Z,101674.73
2019-04-11T19:51:28.522Z,101674.31
2019-04-11T19:53:58.321Z,101666.84
2019-04-11T19:56:43.083Z,101670.23
2019-04-11T19:59:14.959Z,101669.77
2019-04-11T20:01:46.615Z,101667.61
2019-04-11T20:04:18.549Z,101663.72
2019-04-11T20:06:50.242Z,101666.45
2019-04-11T20:09:22.404Z,101664.26
2019-04-11T20:11:54.290Z,101670.31
2019-04-11T20:14:25.571Z,101677.67
2019-04-11T20:16:56.743Z,101677.20
2019-04-11T20:19:28.658Z,101675.01
2019-04-11T20:22:00.597Z,101678.43
2019-04-11T20:24:31.895Z,101678.89
2019-04-11T20:27:03.829Z,101673.58
2019-04-11T20:29:35.136Z,101677.59
2019-04-11T20:32:06.433Z,101674.50
2019-04-11T20:34:39.037Z,101675.73
2019-04-11T20:37:13.131Z,101676.12
2019-04-11T20:39:46.816Z,101677.51
2019-04-11T20:42:17.541Z,101676.58
2019-04-11T20:44:48.789Z,101677.47
2019-04-11T20:47:20.707Z,101675.69
2019-04-11T20:49:53.009Z,101673.49
2019-04-11T20:52:24.975Z,101673.07
2019-04-11T20:54:56.896Z,101671.30
2019-04-11T20:57:28.925Z,101671.59
2019-04-11T21:00:00.886Z,101669.48
2019-04-11T21:02:34.558Z,101670.75
2019-04-11T21:05:06.068Z,101672.06
2019-04-11T21:07:39.169Z,101669.83
2019-04-11T21:10:10.898Z,101674.98
2019-04-11T21:12:42.757Z,101678.88
2019-04-11T21:15:14.824Z,101678.45
2019-04-11T21:17:46.135Z,101674.94
2019-04-11T21:20:17.299Z,101671.81
2019-04-11T21:22:49.155Z,101676.55
2019-04-11T21:25:23.236Z,101673.42
2019-04-11T21:27:54.355Z,101676.50
2019-04-11T21:30:27.974Z,101669.36
2019-04-11T21:33:01.097Z,101674.77
2019-04-11T21:35:34.035Z,101673.42
2019-04-11T21:38:06.188Z,101677.30
2019-04-11T21:40:38.144Z,101673.29
2019-04-11T21:43:09.988Z,101677.27
2019-04-11T21:45:41.941Z,101682.84
2019-04-11T21:48:13.801Z,101683.63
2019-04-11T21:50:45.639Z,101680.55
2019-04-11T21:53:18.878Z,101680.55
2019-04-11T21:55:50.102Z,101680.97
2019-04-11T21:58:22.007Z,101681.44
2019-04-11T22:01:07.536Z,101685.74
2019-04-11T22:03:40.147Z,101684.02
2019-04-11T22:06:11.999Z,101680.05
2019-04-11T22:08:43.209Z,101686.97
2019-04-11T22:11:15.072Z,101683.00
2019-04-11T22:13:47.025Z,101686.92
2019-04-11T22:16:18.961Z,101692.58
2019-04-11T22:18:50.798Z,101681.69
2019-04-11T22:21:22.706Z,101683.89
2019-04-11T22:23:54.610Z,101688.56
2019-04-11T22:26:26.530Z,101684.52
2019-04-11T22:28:58.412Z,101684.03
2019-04-11T22:31:30.363Z,101684.08
2019-04-11T22:34:07.364Z,101683.70
2019-04-11T22:36:39.242Z,101691.05
2019-04-11T22:39:11.852Z,101694.04
2019-04-11T22:41:43.902Z,101695.73
2019-04-11T22:44:15.804Z,101691.84
2019-04-11T22:46:47.712Z,101693.53
2019-04-11T22:49:19.629Z,101696.62
2019-04-11T22:51:51.468Z,101694.79
2019-04-11T22:54:23.441Z,101699.19
2019-04-11T22:56:54.656Z,101698.30
2019-04-11T22:59:26.487Z,101697.83
2019-04-11T23:02:04.031Z,101697.78
2019-04-11T23:04:35.962Z,101697.36
2019-04-11T23:07:07.941Z,101709.05
2019-04-11T23:09:39.753Z,101693.39
2019-04-11T23:12:12.749Z,101705.59
2019-04-11T23:14:45.808Z,101698.25
2019-04-11T23:17:17.603Z,101694.66
2019-04-11T23:19:48.698Z,101706.39
2019-04-11T23:22:20.676Z,101700.17
2019-04-11T23:24:52.523Z,101698.91
2019-04-11T23:27:24.487Z,101700.59
2019-04-11T23:29:55.763Z,101692.27
2019-04-11T23:32:28.882Z,101693.25
2019-04-11T23:35:01.159Z,101693.16
2019-04-11T23:37:35.523Z,101699.80
2019-04-11T23:40:07.609Z,101689.23
2019-04-11T23:42:39.504Z,101692.19
2019-04-11T23:45:11.389Z,101687.80
2019-04-11T23:47:43.335Z,101689.38
2019-04-11T23:50:15.466Z,101695.16
2019-04-11T23:52:47.318Z,101690.73
2019-04-11T23:55:19.225Z,101687.27
2019-04-11T23:57:51.155Z,101686.91
